createdAt,value
2023-03-06T00:00:50.919Z,99526.54
2023-03-06T00:03:22.349Z,99520.95
2023-03-06T00:05:55.564Z,99521.33
2023-03-06T00:08:24.833Z,99524.23
2023-03-06T00:10:56.199Z,99517.79
2023-03-06T00:13:30.067Z,99513.45
2023-03-06T00:16:02.686Z,99514.25
2023-03-06T00:18:33.775Z,99509.69
2023-03-06T00:21:07.445Z,99505.64
2023-03-06T00:23:38.253Z,99511.40
2023-03-06T00:26:11.240Z,99509.15
2023-03-06T00:28:42.217Z,99508.77
2023-03-06T00:31:13.416Z,99503.54
2023-03-06T00:33:44.338Z,99501.36
2023-03-06T00:36:15.202Z,99498.41
2023-03-06T00:38:45.929Z,99494.31
2023-03-06T00:41:16.657Z,99491.36
2023-03-06T00:43:47.500Z,99493.35
2023-03-06T00:46:18.285Z,99490.00
2023-03-06T00:48:49.061Z,99488.09
2023-03-06T00:51:21.702Z,99485.17
2023-03-06T00:53:52.446Z,99483.13
2023-03-06T00:56:23.132Z,99482.40
2023-03-06T00:58:53.773Z,99484.33
2023-03-06T01:01:24.477Z,99479.45
2023-03-06T01:03:55.489Z,99480.77
2023-03-06T01:06:26.441Z,99476.36
2023-03-06T01:08:57.302Z,99469.30
2023-03-06T01:11:29.361Z,99466.10
2023-03-06T01:14:00.733Z,99462.64
2023-03-06T01:16:31.500Z,99462.96
2023-03-06T01:19:02.343Z,99460.25
2023-03-06T01:21:33.615Z,99456.92
2023-03-06T01:24:04.497Z,99454.80
2023-03-06T01:26:35.708Z,99453.37
2023-03-06T01:29:07.346Z,99447.20
2023-03-06T01:31:38.641Z,99446.71
2023-03-06T01:34:09.680Z,99443.50
2023-03-06T01:36:40.403Z,99445.56
2023-03-06T01:39:11.402Z,99444.59
2023-03-06T01:41:42.317Z,99440.62
2023-03-06T01:44:14.544Z,99443.16
2023-03-06T01:46:46.612Z,99440.39
2023-03-06T01:49:22.363Z,99439.05
2023-03-06T01:51:56.980Z,99434.17
2023-03-06T01:54:30.477Z,99433.92
2023-03-06T01:57:04.906Z,99429.93
2023-03-06T01:59:37.461Z,99430.33
2023-03-06T02:02:10.180Z,99427.09
2023-03-06T02:04:42.452Z,99427.11
2023-03-06T02:07:13.254Z,99428.15
2023-03-06T02:09:43.984Z,99425.34
2023-03-06T02:12:18.842Z,99426.04
2023-03-06T02:14:50.415Z,99422.42
2023-03-06T02:17:23.569Z,99419.23
2023-03-06T02:19:55.453Z,99421.39
2023-03-06T02:22:35.703Z,99416.73
2023-03-06T02:25:13.229Z,99417.17
2023-03-06T02:27:44.558Z,99415.54
2023-03-06T02:30:18.044Z,99410.20
2023-03-06T02:32:48.739Z,99411.72
2023-03-06T02:35:22.462Z,99405.20
2023-03-06T02:37:54.001Z,99407.35
2023-03-06T02:40:25.780Z,99399.93
2023-03-06T02:42:58.772Z,99400.16
2023-03-06T02:45:34.926Z,99397.72
2023-03-06T02:48:06.952Z,99395.83
2023-03-06T02:50:37.688Z,99394.00
2023-03-06T02:53:09.322Z,99391.14
2023-03-06T02:55:40.468Z,99387.55
2023-03-06T02:58:11.598Z,99386.40
2023-03-06T03:00:42.503Z,99381.84
2023-03-06T03:03:13.768Z,99381.35
2023-03-06T03:05:44.700Z,99376.06
2023-03-06T03:08:19.687Z,99374.92
2023-03-06T03:10:52.282Z,99370.76
2023-03-06T03:13:23.533Z,99368.16
2023-03-06T03:16:02.819Z,99369.13
2023-03-06T03:18:33.802Z,99364.57
2023-03-06T03:21:08.015Z,99363.51
2023-03-06T03:23:38.812Z,99364.05
2023-03-06T03:26:15.544Z,99362.03
2023-03-06T03:28:49.108Z,99357.90
2023-03-06T03:31:21.642Z,99358.77
2023-03-06T03:33:53.758Z,99356.69
2023-03-06T03:36:26.068Z,99351.05
2023-03-06T03:38:58.188Z,99341.58
2023-03-06T03:41:29.357Z,99356.92
2023-03-06T03:44:00.356Z,99351.28
2023-03-06T03:46:31.070Z,99351.06
2023-03-06T03:49:03.660Z,99346.91
2023-03-06T03:51:35.233Z,99344.67
2023-03-06T03:54:06.325Z,99342.48
2023-03-06T03:56:42.028Z,99337.20
2023-03-06T03:59:21.062Z,99337.75
2023-03-06T04:02:05.775Z,99330.02
2023-03-06T04:04:40.206Z,99325.55
2023-03-06T04:07:11.376Z,99323.74
2023-03-06T04:09:42.662Z,99320.23
2023-03-06T04:12:13.676Z,99320.74
2023-03-06T04:14:45.682Z,99319.14
2023-03-06T04:17:16.641Z,99313.80
2023-03-06T04:19:48.059Z,99311.90
2023-03-06T04:22:20.075Z,99313.84
2023-03-06T04:24:51.167Z,99305.52
2023-03-06T04:27:22.933Z,99307.29
2023-03-06T04:29:56.338Z,99306.33
2023-03-06T04:32:27.462Z,99305.75
2023-03-06T04:34:58.317Z,99303.45
2023-03-06T04:37:31.090Z,99296.52
2023-03-06T04:40:01.193Z,99299.73
2023-03-06T04:42:32.225Z,99303.55
2023-03-06T04:45:02.938Z,99299.78
2023-03-06T04:47:33.667Z,99299.95
2023-03-06T04:50:04.516Z,99298.77
2023-03-06T04:52:35.456Z,99298.86
2023-03-06T04:55:08.832Z,99297.15
2023-03-06T04:57:40.399Z,99292.00
2023-03-06T05:00:16.717Z,99287.41
2023-03-06T05:02:48.094Z,99284.57
2023-03-06T05:05:20.039Z,99281.30
2023-03-06T05:07:50.934Z,99282.20
2023-03-06T05:10:22.356Z,99279.23
2023-03-06T05:12:52.978Z,99279.55
2023-03-06T05:15:23.983Z,99274.35
2023-03-06T05:17:56.577Z,99276.27
2023-03-06T05:20:28.650Z,99279.62
2023-03-06T05:22:59.454Z,99275.46
2023-03-06T05:25:30.108Z,99276.25
2023-03-06T05:28:00.816Z,99274.32
2023-03-06T05:30:31.581Z,99277.23
2023-03-06T05:33:02.812Z,99273.05
2023-03-06T05:35:33.527Z,99271.31
2023-03-06T05:38:04.246Z,99272.17
2023-03-06T05:40:35.164Z,99269.33
2023-03-06T05:43:06.988Z,99270.36
2023-03-06T05:45:38.550Z,99271.27
2023-03-06T05:48:10.348Z,99266.69
2023-03-06T05:50:41.333Z,99263.23
2023-03-06T05:53:12.229Z,99259.59
2023-03-06T05:55:43.121Z,99258.38
2023-03-06T05:58:13.860Z,99257.27
2023-03-06T06:00:44.716Z,99256.58
2023-03-06T06:03:15.482Z,99254.54
2023-03-06T06:05:46.257Z,99252.86
2023-03-06T06:08:17.107Z,99256.04
2023-03-06T06:10:47.961Z,99258.98
2023-03-06T06:13:18.708Z,99261.84
2023-03-06T06:15:49.437Z,99262.05
2023-03-06T06:18:20.678Z,99264.34
2023-03-06T06:20:51.508Z,99263.36
2023-03-06T06:23:22.420Z,99261.98
2023-03-06T06:25:53.228Z,99264.27
2023-03-06T06:28:23.903Z,99263.02
2023-03-06T06:30:54.927Z,99259.55
2023-03-06T06:33:26.645Z,99258.16
2023-03-06T06:35:57.516Z,99251.93
2023-03-06T06:38:28.226Z,99261.31
2023-03-06T06:41:32.994Z,99258.10
2023-03-06T06:43:49.657Z,99261.05
2023-03-06T06:47:09.239Z,99264.80
2023-03-06T06:49:12.045Z,99265.67
2023-03-06T06:51:43.325Z,99261.13
2023-03-06T06:54:14.265Z,99259.63
2023-03-06T06:56:44.902Z,99263.73
2023-03-06T06:59:17.401Z,99261.25
2023-03-06T07:01:48.583Z,99260.56
2023-03-06T07:04:20.163Z,99261.30
2023-03-06T07:06:51.164Z,99261.11
2023-03-06T07:09:22.442Z,99254.86
2023-03-06T07:11:53.454Z,99250.62
2023-03-06T07:14:24.321Z,99255.90
2023-03-06T07:16:55.143Z,99250.96
2023-03-06T07:19:26.355Z,99248.17
2023-03-06T07:21:57.131Z,99248.41
2023-03-06T07:24:28.128Z,99247.06
2023-03-06T07:26:58.867Z,99244.86
2023-03-06T07:29:29.664Z,99241.77
2023-03-06T07:32:00.508Z,99243.67
2023-03-06T07:34:31.526Z,99240.34
2023-03-06T07:37:02.571Z,99241.10
2023-03-06T07:39:33.334Z,99234.45
2023-03-06T07:42:04.767Z,99239.12
2023-03-06T07:44:39.118Z,99236.02
2023-03-06T07:47:09.957Z,99237.23
2023-03-06T07:49:40.829Z,99232.20
2023-03-06T07:52:12.816Z,99236.08
2023-03-06T07:54:43.472Z,99233.85
2023-03-06T07:57:14.123Z,99239.73
2023-03-06T07:59:44.792Z,99240.15
2023-03-06T08:02:15.565Z,99242.60
2023-03-06T08:04:46.296Z,99237.55
2023-03-06T08:07:17.076Z,99238.86
2023-03-06T08:09:47.765Z,99240.02
2023-03-06T08:12:18.705Z,99237.39
2023-03-06T08:14:49.303Z,99235.27
2023-03-06T08:17:20.096Z,99237.52
2023-03-06T08:19:50.774Z,99235.17
2023-03-06T08:22:21.465Z,99237.05
2023-03-06T08:24:55.037Z,99236.17
2023-03-06T08:27:25.795Z,99232.52
2023-03-06T08:29:56.426Z,99233.13
2023-03-06T08:32:27.592Z,99230.00
2023-03-06T08:34:58.376Z,99235.88
2023-03-06T08:37:29.031Z,99239.48
2023-03-06T08:39:59.906Z,99243.02
2023-03-06T08:42:30.916Z,99242.64
2023-03-06T08:45:01.614Z,99245.61
2023-03-06T08:47:32.396Z,99243.58
2023-03-06T08:50:03.259Z,99245.09
2023-03-06T08:52:33.889Z,99242.03
2023-03-06T08:55:05.234Z,99236.52
2023-03-06T08:57:37.011Z,99247.59
2023-03-06T09:00:10.694Z,99246.02
2023-03-06T09:02:41.389Z,99245.39
2023-03-06T09:05:13.198Z,99243.23
2023-03-06T09:07:43.902Z,99246.16
2023-03-06T09:10:18.410Z,99245.73
2023-03-06T09:12:52.493Z,99243.41
2023-03-06T09:15:26.096Z,99247.52
2023-03-06T09:17:57.011Z,99247.09
2023-03-06T09:20:27.869Z,99248.96
2023-03-06T09:22:58.612Z,99247.42
2023-03-06T09:25:29.216Z,99247.51
2023-03-06T09:28:10.961Z,99244.70
2023-03-06T09:30:44.071Z,99243.55
2023-03-06T09:33:15.019Z,99238.91
2023-03-06T09:35:50.901Z,99236.17
2023-03-06T09:38:22.415Z,99238.33
2023-03-06T09:41:11.736Z,99233.07
2023-03-06T09:43:45.264Z,99228.58
2023-03-06T09:46:26.144Z,99224.26
2023-03-06T09:49:15.153Z,99229.35
2023-03-06T09:52:00.361Z,99222.21
2023-03-06T09:54:41.601Z,99213.41
2023-03-06T09:57:19.875Z,99221.00
2023-03-06T09:59:52.188Z,99219.84
2023-03-06T10:02:32.606Z,99216.10
2023-03-06T10:05:09.311Z,99212.35
2023-03-06T10:07:47.982Z,99208.86
2023-03-06T10:10:23.801Z,99206.89
2023-03-06T10:13:04.299Z,99205.91
2023-03-06T10:15:39.505Z,99202.23
2023-03-06T10:18:13.113Z,99201.59
2023-03-06T10:20:50.927Z,99199.71
2023-03-06T10:23:37.343Z,99200.21
2023-03-06T10:26:14.913Z,99199.86
2023-03-06T10:28:58.083Z,99202.19
2023-03-06T10:31:29.657Z,99201.85
2023-03-06T10:34:12.728Z,99203.73
2023-03-06T10:36:43.378Z,99205.02
2023-03-06T10:39:19.788Z,99206.63
2023-03-06T10:41:51.494Z,99209.40
2023-03-06T10:44:26.684Z,99212.04
2023-03-06T10:46:57.983Z,99210.16
2023-03-06T10:49:32.886Z,99208.81
2023-03-06T10:52:06.908Z,99207.54
2023-03-06T10:54:40.474Z,99207.56
2023-03-06T10:57:29.493Z,99201.98
2023-03-06T11:00:04.716Z,99200.34
2023-03-06T11:02:38.534Z,99197.29
2023-03-06T11:05:21.472Z,99203.25
2023-03-06T11:07:59.278Z,99199.55
2023-03-06T11:10:31.815Z,99197.58
2023-03-06T11:13:08.750Z,99193.33
2023-03-06T11:15:39.477Z,99194.56
2023-03-06T11:18:31.258Z,99198.31
2023-03-06T11:21:02.815Z,99198.08
2023-03-06T11:23:42.416Z,99199.43
2023-03-06T11:26:38.787Z,99201.52
2023-03-06T11:29:43.934Z,99197.96
2023-03-06T11:32:21.892Z,99196.23
2023-03-06T11:34:58.896Z,99195.91
2023-03-06T11:37:42.762Z,99193.87
2023-03-06T11:40:21.127Z,99188.11
2023-03-06T11:43:00.881Z,99189.41
2023-03-06T11:45:37.317Z,99186.34
2023-03-06T11:48:22.822Z,99181.95
2023-03-06T11:50:57.266Z,99182.16
2023-03-06T11:53:33.152Z,99180.60
2023-03-06T11:56:15.755Z,99175.92
2023-03-06T11:59:16.990Z,99174.23
2023-03-06T12:02:00.604Z,99173.09
2023-03-06T12:04:47.119Z,99168.70
2023-03-06T12:07:27.889Z,99165.84
2023-03-06T12:10:18.384Z,99155.14
2023-03-06T12:13:10.837Z,99157.53
2023-03-06T12:15:59.405Z,99150.48
2023-03-06T12:18:44.204Z,99146.48
2023-03-06T12:21:28.553Z,99147.22
2023-03-06T12:24:18.201Z,99140.91
2023-03-06T12:27:14.470Z,99142.23
2023-03-06T12:29:59.443Z,99134.20
2023-03-06T12:32:45.007Z,99128.61
2023-03-06T12:35:44.804Z,99129.92
2023-03-06T12:38:39.137Z,99125.59
2023-03-06T12:41:23.214Z,99124.34
2023-03-06T12:44:07.558Z,99122.00
2023-03-06T12:46:44.429Z,99127.05
2023-03-06T12:49:31.968Z,99129.84
2023-03-06T12:52:06.030Z,99128.83
2023-03-06T12:54:40.931Z,99127.12
2023-03-06T12:57:15.420Z,99127.40
2023-03-06T12:59:48.541Z,99126.50
2023-03-06T13:02:45.800Z,99121.45
2023-03-06T13:05:35.088Z,99118.89
2023-03-06T13:08:35.535Z,99118.66
2023-03-06T13:11:31.679Z,99118.63
2023-03-06T13:14:19.734Z,99119.95
2023-03-06T13:16:50.552Z,99122.00
2023-03-06T13:19:24.287Z,99121.77
2023-03-06T13:22:24.872Z,99123.42
2023-03-06T13:25:49.003Z,99127.17
2023-03-06T13:28:44.806Z,99127.80
2023-03-06T13:31:27.768Z,99125.64
2023-03-06T13:34:01.138Z,99123.29
2023-03-06T13:36:33.961Z,99128.22
2023-03-06T13:39:09.576Z,99127.91
2023-03-06T13:41:58.206Z,99125.77
2023-03-06T13:44:52.983Z,99121.22
2023-03-06T13:50:45.381Z,99116.11
2023-03-06T13:53:44.571Z,99112.95
2023-03-06T13:56:35.976Z,99110.48
2023-03-06T13:59:34.101Z,99103.32
2023-03-06T14:02:24.752Z,99097.05
2023-03-06T14:05:00.898Z,99097.30
2023-03-06T14:07:33.467Z,99097.56
2023-03-06T14:10:20.508Z,99093.70
2023-03-06T14:13:15.058Z,99095.34
2023-03-06T14:15:48.035Z,99093.92
2023-03-06T14:18:19.743Z,99094.14
2023-03-06T14:20:54.984Z,99093.05
2023-03-06T14:23:35.576Z,99099.41
2023-03-06T14:26:15.549Z,99099.46
2023-03-06T14:28:55.230Z,99101.38
2023-03-06T14:31:28.854Z,99099.70
2023-03-06T14:34:02.754Z,99097.59
2023-03-06T14:36:37.630Z,99100.16
2023-03-06T14:39:13.701Z,99097.52
2023-03-06T14:41:44.844Z,99096.52
2023-03-06T14:44:21.719Z,99093.66
2023-03-06T14:46:55.043Z,99093.63
2023-03-06T14:49:27.870Z,99092.43
2023-03-06T14:52:00.525Z,99093.10
2023-03-06T14:54:33.632Z,99085.85
2023-03-06T14:57:06.848Z,99084.27
2023-03-06T14:59:44.878Z,99088.80
2023-03-06T15:02:22.396Z,99086.45
2023-03-06T15:04:55.799Z,99083.90
2023-03-06T15:07:30.408Z,99082.64
2023-03-06T15:10:02.405Z,99080.66
2023-03-06T15:12:38.712Z,99080.75
2023-03-06T15:18:35.446Z,99084.91
2023-03-06T15:21:19.336Z,99085.96
2023-03-06T15:23:51.956Z,99081.61
2023-03-06T15:26:29.118Z,99081.34
2023-03-06T15:29:09.260Z,99079.08
2023-03-06T15:31:42.045Z,99077.38
2023-03-06T15:34:29.372Z,99078.02
2023-03-06T15:37:00.467Z,99077.02
2023-03-06T15:39:39.784Z,99075.48
2023-03-06T15:42:22.368Z,99074.60
2023-03-06T15:44:55.090Z,99073.80
2023-03-06T15:47:25.748Z,99073.08
2023-03-06T15:49:56.962Z,99073.25
2023-03-06T15:52:27.754Z,99072.56
2023-03-06T15:54:58.425Z,99079.77
2023-03-06T15:57:30.296Z,99092.20
2023-03-06T16:00:03.959Z,99094.87
2023-03-06T16:02:55.580Z,99110.00
2023-03-06T16:05:28.438Z,99116.64
2023-03-06T16:07:59.634Z,99110.81
2023-03-06T16:10:34.056Z,99115.62
2023-03-06T16:13:09.723Z,99120.75
2023-03-06T16:15:42.540Z,99127.21
2023-03-06T16:18:14.952Z,99128.63
2023-03-06T16:20:46.014Z,99133.14
2023-03-06T16:23:16.748Z,99133.68
2023-03-06T16:25:50.792Z,99133.95
2023-03-06T16:28:21.478Z,99131.96
2023-03-06T16:30:52.253Z,99139.00
2023-03-06T16:33:23.137Z,99137.11
2023-03-06T16:35:54.326Z,99136.63
2023-03-06T16:38:25.186Z,99139.55
2023-03-06T16:40:55.892Z,99137.23
2023-03-06T16:43:26.609Z,99136.33
2023-03-06T16:45:58.286Z,99133.84
2023-03-06T16:48:29.161Z,99126.54
2023-03-06T16:50:59.878Z,99128.86
2023-03-06T16:53:30.593Z,99128.27
2023-03-06T16:56:01.423Z,99127.48
2023-03-06T16:58:32.525Z,99123.10
2023-03-06T17:01:03.965Z,99124.45
2023-03-06T17:03:35.006Z,99119.64
2023-03-06T17:06:13.937Z,99123.55
2023-03-06T17:08:45.428Z,99120.41
2023-03-06T17:11:17.142Z,99122.29
2023-03-06T17:13:47.886Z,99121.88
2023-03-06T17:16:19.144Z,99120.42
2023-03-06T17:18:50.299Z,99114.61
2023-03-06T17:21:21.154Z,99126.95
2023-03-06T17:23:51.874Z,99132.97
2023-03-06T17:26:22.802Z,99134.71
2023-03-06T17:28:54.389Z,99138.56
2023-03-06T17:31:26.814Z,99139.85
2023-03-06T17:34:00.712Z,99144.94
2023-03-06T17:36:32.736Z,99144.77
2023-03-06T17:39:07.393Z,99149.48
2023-03-06T17:41:38.106Z,99151.42
2023-03-06T17:44:10.984Z,99150.92
2023-03-06T17:46:41.708Z,99154.89
2023-03-06T17:49:12.764Z,99158.52
2023-03-06T17:51:43.476Z,99161.38
2023-03-06T17:54:14.206Z,99163.25
2023-03-06T17:56:45.411Z,99167.05
2023-03-06T17:59:16.254Z,99170.05
2023-03-06T18:01:47.153Z,99170.13
2023-03-06T18:04:18.081Z,99167.91
2023-03-06T18:06:49.107Z,99163.93
2023-03-06T18:09:19.912Z,99163.82
2023-03-06T18:11:50.683Z,99165.83
2023-03-06T18:14:21.349Z,99161.22
2023-03-06T18:16:52.148Z,99164.45
2023-03-06T18:19:22.805Z,99163.56
2023-03-06T18:21:53.589Z,99161.59
2023-03-06T18:24:25.137Z,99162.63
2023-03-06T18:26:56.157Z,99165.98
2023-03-06T18:29:26.989Z,99164.89
2023-03-06T18:32:02.123Z,99169.12
2023-03-06T18:34:33.540Z,99167.08
2023-03-06T18:37:04.202Z,99172.56
2023-03-06T18:39:39.403Z,99177.29
2023-03-06T18:42:11.353Z,99180.71
2023-03-06T18:44:44.032Z,99177.84
2023-03-06T18:47:14.906Z,99180.15
2023-03-06T18:49:46.388Z,99181.33
2023-03-06T18:52:17.225Z,99179.75
2023-03-06T18:54:50.525Z,99179.17
2023-03-06T18:57:21.335Z,99177.34
2023-03-06T18:59:52.259Z,99175.95
2023-03-06T19:02:23.130Z,99175.64
2023-03-06T19:04:54.652Z,99180.02
2023-03-06T19:07:25.709Z,99181.39
2023-03-06T19:09:56.323Z,99181.52
2023-03-06T19:12:27.046Z,99182.05
2023-03-06T19:14:58.990Z,99183.86
2023-03-06T19:17:31.429Z,99183.56
2023-03-06T19:20:02.148Z,99183.77
2023-03-06T19:22:35.082Z,99183.26
2023-03-06T19:25:07.779Z,99181.81
2023-03-06T19:27:39.510Z,99181.21
2023-03-06T19:30:12.945Z,99181.97
2023-03-06T19:32:46.987Z,99182.35
2023-03-06T19:35:18.695Z,99178.21
2023-03-06T19:37:49.492Z,99178.08
2023-03-06T19:40:20.360Z,99177.17
2023-03-06T19:42:51.389Z,99178.31
2023-03-06T19:45:22.411Z,99174.38
2023-03-06T19:47:55.542Z,99169.16
2023-03-06T19:50:29.534Z,99166.06
2023-03-06T19:53:00.357Z,99168.60
2023-03-06T19:55:31.814Z,99168.27
2023-03-06T19:58:02.856Z,99169.61
2023-03-06T20:00:34.637Z,99168.78
2023-03-06T20:03:05.656Z,99170.42
2023-03-06T20:05:36.371Z,99176.42
2023-03-06T20:08:07.825Z,99179.27
2023-03-06T20:10:40.353Z,99173.14
2023-03-06T20:13:11.137Z,99166.95
2023-03-06T20:15:41.896Z,99165.71
2023-03-06T20:18:12.886Z,99169.99
2023-03-06T20:20:45.324Z,99167.80
2023-03-06T20:23:16.726Z,99170.04
2023-03-06T20:25:47.688Z,99167.98
2023-03-06T20:28:21.410Z,99164.76
2023-03-06T20:30:52.242Z,99162.89
2023-03-06T20:33:26.592Z,99164.80
2023-03-06T20:36:00.649Z,99164.47
2023-03-06T20:38:31.754Z,99160.86
2023-03-06T20:41:03.113Z,99159.29
2023-03-06T20:43:33.820Z,99160.37
2023-03-06T20:46:07.015Z,99158.96
2023-03-06T20:48:40.529Z,99159.95
2023-03-06T20:51:19.022Z,99163.06
2023-03-06T20:53:54.814Z,99160.14
2023-03-06T20:56:27.121Z,99160.12
2023-03-06T20:58:58.191Z,99153.45
2023-03-06T21:01:30.729Z,99154.08
2023-03-06T21:04:02.426Z,99148.41
2023-03-06T21:06:34.294Z,99145.98
2023-03-06T21:09:06.468Z,99142.34
2023-03-06T21:11:37.953Z,99140.50
2023-03-06T21:14:08.649Z,99140.46
2023-03-06T21:16:39.668Z,99134.08
2023-03-06T21:19:11.477Z,99130.69
2023-03-06T21:21:42.322Z,99131.29
2023-03-06T21:24:13.872Z,99128.00
2023-03-06T21:26:45.269Z,99125.48
2023-03-06T21:29:18.936Z,99125.58
2023-03-06T21:32:11.080Z,99119.90
2023-03-06T21:34:42.090Z,99119.90
2023-03-06T21:37:12.817Z,99116.20
2023-03-06T21:39:43.492Z,99119.49
2023-03-06T21:42:14.706Z,99116.90
2023-03-06T21:44:45.876Z,99114.36
2023-03-06T21:47:17.476Z,99116.17
2023-03-06T21:49:50.806Z,99110.77
2023-03-06T21:52:21.963Z,99109.49
2023-03-06T21:54:54.415Z,99107.89
2023-03-06T21:57:25.825Z,99104.58
2023-03-06T21:59:57.415Z,99102.45
2023-03-06T22:02:29.286Z,99103.31
2023-03-06T22:05:00.671Z,99100.17
2023-03-06T22:07:37.424Z,99104.61
2023-03-06T22:10:12.141Z,99104.70
2023-03-06T22:12:43.237Z,99100.88
2023-03-06T22:15:14.492Z,99099.20
2023-03-06T22:17:45.406Z,99098.87
2023-03-06T22:20:16.840Z,99095.45
2023-03-06T22:22:47.748Z,99094.80
2023-03-06T22:25:18.826Z,99089.14
2023-03-06T22:27:49.474Z,99088.98
2023-03-06T22:30:20.769Z,99089.05
2023-03-06T22:32:53.065Z,99085.49
2023-03-06T22:35:23.782Z,99085.20
2023-03-06T22:37:54.707Z,99084.77
2023-03-06T22:40:25.381Z,99079.77
2023-03-06T22:42:56.188Z,99078.27
2023-03-06T22:45:27.017Z,99077.39
2023-03-06T22:48:10.106Z,99069.06
2023-03-06T22:50:41.894Z,99070.77
2023-03-06T22:53:12.555Z,99071.23
2023-03-06T22:55:43.310Z,99072.80
2023-03-06T22:58:14.059Z,99075.14
2023-03-06T23:00:44.743Z,99077.06
2023-03-06T23:03:15.636Z,99075.55
2023-03-06T23:05:46.613Z,99077.29
2023-03-06T23:08:17.338Z,99073.00
2023-03-06T23:10:48.036Z,99071.17
2023-03-06T23:13:37.648Z,99065.46
2023-03-06T23:16:27.770Z,99057.82
2023-03-06T23:19:17.381Z,99063.35
2023-03-06T23:22:07.142Z,99059.79
2023-03-06T23:24:56.541Z,99054.84
2023-03-06T23:27:27.367Z,99054.90
2023-03-06T23:29:59.210Z,99053.11
2023-03-06T23:32:30.141Z,99056.36
2023-03-06T23:35:01.240Z,99053.20
2023-03-06T23:37:32.073Z,99050.50
2023-03-06T23:40:03.042Z,99045.85
2023-03-06T23:42:33.998Z,99045.39
2023-03-06T23:45:05.257Z,99039.00
2023-03-06T23:47:36.543Z,99032.42
2023-03-06T23:50:08.879Z,99032.63
2023-03-06T23:52:40.425Z,99026.96
2023-03-06T23:55:12.130Z,99027.73
2023-03-06T23:57:42.788Z,99022.96
